Time;durP1;ratioP1;P1;durP2;ratioP2;P2;SDS_P1;SDS_P2;PMS_P1;PMS_P2;Temp;Humidity;BMP_temperature;BMP_pressure;BME280_temperature;BME280_humidity;BME280_pressure;Samples;Min_cycle;Max_cycle;Signal;HPM_P1;HPM_P2
2022/12/10 00:01:16;;;;;;;130.52;43.35;;;;;;;;;;4940903;28;20051;-71
2022/12/10 00:03:42;;;;;;;123.15;44.88;;;;;;;;;;4936346;28;20134;-70
2022/12/10 00:06:08;;;;;;;118.95;42.20;;;;;;;;;;4938453;28;20079;-69
2022/12/10 00:08:34;;;;;;;100.35;38.75;;;;;;;;;;4957100;28;20038;-70
2022/12/10 00:10:59;;;;;;;106.50;39.20;;;;;;;;;;4958258;28;20120;-70
2022/12/10 00:13:30;;;;;;;107.75;41.95;;;;;;;;;;4955610;28;20121;-69
2022/12/10 00:15:55;;;;;;;104.82;42.65;;;;;;;;;;4954257;28;22281;-69
2022/12/10 00:18:23;;;;;;;110.07;43.92;;;;;;;;;;4957895;28;20045;-70
2022/12/10 00:20:49;;;;;;;124.43;44.72;;;;;;;;;;4960060;28;20687;-70
2022/12/10 00:23:16;;;;;;;118.13;42.85;;;;;;;;;;4961159;28;20104;-69
2022/12/10 00:25:44;;;;;;;134.45;46.38;;;;;;;;;;4961478;28;20451;-69
2022/12/10 00:28:14;;;;;;;145.45;51.92;;;;;;;;;;4962390;28;20038;-70
2022/12/10 00:30:42;;;;;;;151.55;53.28;;;;;;;;;;4961415;28;20038;-70
2022/12/10 00:33:07;;;;;;;137.60;48.00;;;;;;;;;;4958748;28;20054;-69
2022/12/10 00:35:35;;;;;;;158.15;52.53;;;;;;;;;;4938952;28;20195;-69
2022/12/10 00:38:00;;;;;;;148.30;48.83;;;;;;;;;;4961330;28;20045;-69
2022/12/10 00:40:26;;;;;;;161.90;52.85;;;;;;;;;;4960758;28;20800;-70
2022/12/10 00:42:51;;;;;;;173.63;54.70;;;;;;;;;;4958665;28;20038;-71
2022/12/10 00:45:16;;;;;;;201.13;57.13;;;;;;;;;;4961697;28;20034;-71
2022/12/10 00:47:42;;;;;;;174.65;53.22;;;;;;;;;;4942891;28;21000;-71
2022/12/10 00:50:08;;;;;;;208.93;57.88;;;;;;;;;;4961812;28;20050;-69
2022/12/10 00:52:36;;;;;;;201.45;54.03;;;;;;;;;;4960880;28;20484;-69
2022/12/10 00:55:01;;;;;;;198.25;51.08;;;;;;;;;;4960508;28;20092;-69
2022/12/10 00:57:26;;;;;;;175.60;49.25;;;;;;;;;;4960764;28;20058;-70
2022/12/10 00:59:52;;;;;;;182.30;51.70;;;;;;;;;;4944184;28;20089;-69
2022/12/10 01:02:17;;;;;;;159.10;48.42;;;;;;;;;;4962689;28;20095;-69
2022/12/10 01:04:45;;;;;;;145.38;46.30;;;;;;;;;;4960985;28;20058;-69
2022/12/10 01:07:10;;;;;;;183.25;53.10;;;;;;;;;;4960319;28;20042;-69
2022/12/10 01:09:36;;;;;;;188.00;55.30;;;;;;;;;;4941469;28;20062;-72
2022/12/10 01:12:04;;;;;;;187.45;52.13;;;;;;;;;;4927290;28;20604;-69
2022/12/10 01:14:33;;;;;;;173.50;50.75;;;;;;;;;;4961611;28;20084;-70
2022/12/10 01:17:02;;;;;;;168.13;49.80;;;;;;;;;;4958640;28;20495;-69
2022/12/10 01:19:28;;;;;;;188.13;54.28;;;;;;;;;;4940107;28;20975;-70
2022/12/10 01:21:54;;;;;;;205.13;55.10;;;;;;;;;;4962191;28;20417;-70
2022/12/10 01:24:20;;;;;;;210.80;54.53;;;;;;;;;;4961353;28;20050;-71
2022/12/10 01:26:45;;;;;;;200.55;50.83;;;;;;;;;;4958379;28;20048;-71
2022/12/10 01:29:11;;;;;;;202.38;49.05;;;;;;;;;;4940486;28;20047;-70
2022/12/10 01:31:39;;;;;;;226.23;50.20;;;;;;;;;;4959913;28;20044;-70
2022/12/10 01:34:05;;;;;;;259.52;55.88;;;;;;;;;;4938859;28;20046;-70
2022/12/10 01:36:35;;;;;;;317.95;61.47;;;;;;;;;;4960579;28;21052;-70
2022/12/10 01:39:01;;;;;;;273.15;81.05;;;;;;;;;;4960152;28;20499;-69
2022/12/10 01:41:28;;;;;;;280.90;76.43;;;;;;;;;;4944022;28;20081;-70
2022/12/10 01:44:02;;;;;;;328.40;83.22;;;;;;;;;;4960711;28;22290;-70
2022/12/10 01:46:28;;;;;;;374.02;75.57;;;;;;;;;;4960100;28;20146;-71
2022/12/10 01:48:57;;;;;;;277.75;70.88;;;;;;;;;;4961278;28;20169;-70
2022/12/10 01:51:26;;;;;;;310.77;69.35;;;;;;;;;;4959530;28;20043;-69
2022/12/10 01:53:53;;;;;;;320.00;71.32;;;;;;;;;;4940182;28;20038;-70
2022/12/10 01:56:19;;;;;;;280.08;64.65;;;;;;;;;;4945540;28;20085;-70
2022/12/10 01:58:45;;;;;;;304.90;65.95;;;;;;;;;;4942859;28;20036;-70
2022/12/10 02:01:15;;;;;;;290.38;69.80;;;;;;;;;;4960827;28;20069;-70
2022/12/10 02:03:59;;;;;;;341.95;81.57;;;;;;;;;;4959429;28;20772;-71
2022/12/10 02:06:34;;;;;;;310.27;82.25;;;;;;;;;;4960321;28;20043;-70
2022/12/10 02:09:06;;;;;;;285.70;89.40;;;;;;;;;;4940470;28;20117;-70
2022/12/10 02:11:40;;;;;;;339.80;89.45;;;;;;;;;;4960690;28;20050;-70
2022/12/10 02:14:10;;;;;;;315.02;78.55;;;;;;;;;;4957828;28;20069;-70
2022/12/10 02:16:35;;;;;;;276.95;76.88;;;;;;;;;;4958253;28;20149;-71
2022/12/10 02:19:06;;;;;;;255.23;67.80;;;;;;;;;;4961369;28;20042;-71
2022/12/10 02:21:36;;;;;;;231.48;63.03;;;;;;;;;;4960404;28;20054;-71
2022/12/10 02:24:04;;;;;;;276.95;79.90;;;;;;;;;;4942074;28;20092;-71
2022/12/10 02:26:36;;;;;;;289.90;93.25;;;;;;;;;;4960342;28;20079;-70
2022/12/10 02:29:13;;;;;;;291.17;85.70;;;;;;;;;;4939045;28;20037;-69
2022/12/10 02:31:42;;;;;;;291.65;90.57;;;;;;;;;;4959510;28;20039;-71
2022/12/10 02:34:10;;;;;;;276.33;79.18;;;;;;;;;;4958508;28;20054;-69
2022/12/10 02:36:37;;;;;;;291.90;71.32;;;;;;;;;;4960873;28;20065;-70
2022/12/10 02:39:05;;;;;;;314.75;74.70;;;;;;;;;;4960022;28;20053;-70
2022/12/10 02:41:35;;;;;;;252.27;68.60;;;;;;;;;;4959059;28;20129;-71
2022/12/10 02:44:03;;;;;;;266.05;66.20;;;;;;;;;;4957571;28;20042;-70
2022/12/10 02:46:29;;;;;;;272.55;68.28;;;;;;;;;;4961179;28;20074;-71
2022/12/10 02:48:55;;;;;;;265.55;64.18;;;;;;;;;;4939563;28;20092;-70
2022/12/10 02:51:20;;;;;;;259.92;63.85;;;;;;;;;;4928091;28;20473;-70
2022/12/10 02:53:50;;;;;;;253.88;65.18;;;;;;;;;;4959749;28;20038;-71
2022/12/10 02:56:16;;;;;;;252.60;59.67;;;;;;;;;;4942161;28;20043;-71
2022/12/10 02:58:44;;;;;;;269.73;65.10;;;;;;;;;;4959870;28;20040;-70
2022/12/10 03:01:45;;;;;;;282.65;66.85;;;;;;;;;;4958554;28;20046;-70
2022/12/10 03:04:22;;;;;;;276.63;70.10;;;;;;;;;;4983784;28;20045;-70
2022/12/10 03:06:51;;;;;;;254.57;62.40;;;;;;;;;;4962165;28;20247;-70
2022/12/10 03:09:21;;;;;;;264.02;64.10;;;;;;;;;;4958183;28;20122;-70
2022/12/10 03:11:48;;;;;;;249.65;61.50;;;;;;;;;;4958722;28;20038;-70
2022/12/10 03:14:27;;;;;;;271.15;69.28;;;;;;;;;;4960144;28;20060;-70
2022/12/10 03:16:57;;;;;;;246.02;62.25;;;;;;;;;;4957115;28;20038;-70
2022/12/10 03:19:27;;;;;;;233.02;57.33;;;;;;;;;;4941794;28;20069;-70
2022/12/10 03:21:53;;;;;;;268.13;69.55;;;;;;;;;;4958607;28;20054;-71
2022/12/10 03:24:19;;;;;;;280.58;69.60;;;;;;;;;;4959824;28;20524;-70
2022/12/10 03:26:46;;;;;;;304.17;79.85;;;;;;;;;;4957516;28;20407;-70
2022/12/10 03:29:14;;;;;;;304.00;73.45;;;;;;;;;;4959568;28;20038;-70
2022/12/10 03:31:40;;;;;;;384.40;77.03;;;;;;;;;;4959589;28;20042;-70
2022/12/10 03:34:07;;;;;;;295.92;71.28;;;;;;;;;;4937328;28;20411;-69
2022/12/10 03:36:37;;;;;;;360.15;87.22;;;;;;;;;;4958301;28;20157;-71
2022/12/10 03:39:05;;;;;;;410.77;118.80;;;;;;;;;;4958475;28;20865;-70
2022/12/10 03:41:35;;;;;;;411.02;118.13;;;;;;;;;;4959729;28;20046;-71
2022/12/10 03:44:00;;;;;;;430.38;90.35;;;;;;;;;;4959080;28;20046;-71
2022/12/10 03:46:27;;;;;;;363.23;80.50;;;;;;;;;;4958699;28;20111;-71
2022/12/10 03:48:55;;;;;;;356.70;75.15;;;;;;;;;;4936582;28;20538;-70
2022/12/10 03:51:21;;;;;;;353.35;75.15;;;;;;;;;;4959649;28;20046;-70
2022/12/10 03:53:48;;;;;;;367.27;79.80;;;;;;;;;;4960516;28;20043;-70
2022/12/10 03:56:16;;;;;;;509.52;90.50;;;;;;;;;;4942636;28;20099;-70
2022/12/10 03:58:42;;;;;;;470.65;82.97;;;;;;;;;;4961646;28;20116;-71
2022/12/10 04:01:08;;;;;;;507.80;93.90;;;;;;;;;;4941508;28;20054;-71
2022/12/10 04:03:36;;;;;;;543.58;87.57;;;;;;;;;;4944368;28;20726;-70
2022/12/10 04:06:09;;;;;;;451.73;75.10;;;;;;;;;;4946024;28;20701;-71
2022/12/10 04:08:36;;;;;;;458.60;69.93;;;;;;;;;;4957088;28;20054;-71
2022/12/10 04:11:06;;;;;;;461.63;75.88;;;;;;;;;;4963136;28;20042;-69
2022/12/10 04:16:31;;;;;;;557.33;71.95;;;;;;;;;;4961685;28;20035;-69
2022/12/10 04:19:00;;;;;;;591.67;76.05;;;;;;;;;;4962565;28;20046;-70
2022/12/10 04:26:59;;;;;;;628.25;81.55;;;;;;;;;;4961738;28;20045;-71
2022/12/10 04:29:28;;;;;;;524.80;82.18;;;;;;;;;;4946276;28;20042;-71
2022/12/10 04:31:54;;;;;;;570.58;80.30;;;;;;;;;;4962116;28;20095;-71
2022/12/10 04:34:19;;;;;;;583.50;78.38;;;;;;;;;;4943456;28;20051;-70
2022/12/10 04:36:45;;;;;;;472.58;67.68;;;;;;;;;;4961680;28;20034;-70
2022/12/10 04:39:13;;;;;;;568.35;72.05;;;;;;;;;;4942818;28;20047;-71
2022/12/10 04:41:43;;;;;;;505.52;66.00;;;;;;;;;;4961959;28;20686;-70
2022/12/10 04:44:08;;;;;;;441.95;67.13;;;;;;;;;;4961493;28;20040;-70
2022/12/10 04:46:33;;;;;;;607.13;71.38;;;;;;;;;;4960261;28;20027;-70
2022/12/10 04:49:02;;;;;;;555.33;66.43;;;;;;;;;;4961126;28;20474;-70
2022/12/10 04:51:27;;;;;;;396.30;67.63;;;;;;;;;;4960983;28;20038;-69
2022/12/10 04:53:52;;;;;;;606.60;84.15;;;;;;;;;;4947090;28;20722;-69
2022/12/10 04:56:18;;;;;;;619.90;81.00;;;;;;;;;;4961802;28;20053;-69
2022/12/10 04:58:43;;;;;;;309.83;62.28;;;;;;;;;;4960131;28;20042;-70
2022/12/10 05:01:10;;;;;;;651.08;84.07;;;;;;;;;;4940262;28;20579;-70
2022/12/10 05:03:35;;;;;;;585.70;78.25;;;;;;;;;;4960738;28;20034;-70
2022/12/10 05:06:04;;;;;;;444.02;71.60;;;;;;;;;;4959929;28;20031;-70
2022/12/10 05:08:30;;;;;;;415.08;84.57;;;;;;;;;;4959911;28;20115;-70
2022/12/10 05:10:55;;;;;;;395.33;73.07;;;;;;;;;;4943435;28;20540;-71
2022/12/10 05:13:23;;;;;;;436.77;72.30;;;;;;;;;;4961495;28;20053;-70
2022/12/10 05:15:48;;;;;;;610.17;87.30;;;;;;;;;;4960672;28;20173;-69
2022/12/10 05:18:16;;;;;;;660.30;88.65;;;;;;;;;;4957933;28;20137;-70
2022/12/10 05:20:41;;;;;;;570.25;77.78;;;;;;;;;;4958411;28;20073;-70
2022/12/10 05:23:27;;;;;;;591.70;76.65;;;;;;;;;;4961390;28;20696;-70
2022/12/10 05:25:58;;;;;;;718.25;83.07;;;;;;;;;;4960495;28;20031;-69
2022/12/10 05:28:24;;;;;;;598.53;88.68;;;;;;;;;;4959600;28;20487;-70
2022/12/10 05:30:49;;;;;;;512.30;71.82;;;;;;;;;;4944300;28;20044;-69
2022/12/10 05:33:17;;;;;;;559.90;68.40;;;;;;;;;;4960528;28;20034;-69
2022/12/10 05:35:42;;;;;;;578.83;74.22;;;;;;;;;;4961293;28;20041;-70
2022/12/10 05:38:10;;;;;;;601.17;69.45;;;;;;;;;;4958420;28;21080;-70
2022/12/10 05:40:35;;;;;;;500.13;69.07;;;;;;;;;;4940038;28;20415;-71
2022/12/10 05:43:06;;;;;;;601.35;70.78;;;;;;;;;;4940225;28;20034;-70
2022/12/10 05:45:31;;;;;;;447.98;66.72;;;;;;;;;;4957695;28;20038;-69
2022/12/10 05:47:56;;;;;;;595.83;73.80;;;;;;;;;;4943972;28;20449;-69
2022/12/10 05:50:22;;;;;;;492.30;65.65;;;;;;;;;;4959413;28;20030;-70
2022/12/10 05:52:49;;;;;;;556.05;72.93;;;;;;;;;;4959698;28;20031;-69
2022/12/10 05:55:17;;;;;;;627.83;76.18;;;;;;;;;;4959150;28;20038;-69
2022/12/10 05:57:44;;;;;;;438.70;63.42;;;;;;;;;;4940098;28;20180;-69
2022/12/10 06:00:10;;;;;;;440.88;73.85;;;;;;;;;;4960671;28;20117;-70
2022/12/10 06:02:35;;;;;;;535.47;63.15;;;;;;;;;;4942869;28;20054;-70
2022/12/10 06:05:00;;;;;;;391.83;56.30;;;;;;;;;;4943138;28;20046;-72
2022/12/10 06:07:26;;;;;;;451.42;59.33;;;;;;;;;;4942982;28;20043;-71
2022/12/10 06:09:54;;;;;;;490.30;63.97;;;;;;;;;;4940553;28;20083;-70
2022/12/10 06:12:19;;;;;;;506.95;75.75;;;;;;;;;;4923367;28;20417;-71
2022/12/10 06:14:45;;;;;;;565.65;68.65;;;;;;;;;;4962248;28;20111;-69
2022/12/10 06:17:16;;;;;;;423.02;61.65;;;;;;;;;;4941937;28;20560;-67
2022/12/10 06:19:41;;;;;;;478.95;75.70;;;;;;;;;;4959901;28;20522;-70
2022/12/10 06:22:07;;;;;;;378.88;72.38;;;;;;;;;;4958341;28;20058;-72
2022/12/10 06:24:32;;;;;;;412.02;61.75;;;;;;;;;;4954493;28;20635;-70
2022/12/10 06:26:57;;;;;;;366.88;58.38;;;;;;;;;;4957577;28;20045;-70
2022/12/10 06:29:23;;;;;;;544.30;64.70;;;;;;;;;;4958447;28;20046;-68
2022/12/10 06:31:50;;;;;;;452.02;60.85;;;;;;;;;;4958396;28;20039;-70
2022/12/10 06:34:15;;;;;;;372.05;59.67;;;;;;;;;;4955527;28;20125;-69
2022/12/10 06:36:41;;;;;;;543.47;72.85;;;;;;;;;;4940962;28;20414;-69
2022/12/10 06:39:08;;;;;;;518.78;69.53;;;;;;;;;;4958495;28;20042;-68
2022/12/10 06:41:34;;;;;;;521.20;63.72;;;;;;;;;;4960588;28;20054;-70
2022/12/10 06:43:59;;;;;;;400.45;59.95;;;;;;;;;;4959907;28;20038;-68
2022/12/10 06:46:26;;;;;;;560.28;88.50;;;;;;;;;;4959862;28;20042;-69
2022/12/10 06:48:51;;;;;;;833.17;98.13;;;;;;;;;;4958897;28;20056;-69
2022/12/10 06:51:20;;;;;;;498.92;72.32;;;;;;;;;;4943499;28;20340;-71
2022/12/10 06:53:48;;;;;;;681.55;82.68;;;;;;;;;;4939460;28;20179;-70
2022/12/10 06:56:14;;;;;;;445.83;76.15;;;;;;;;;;4955206;28;20463;-69
2022/12/10 06:58:41;;;;;;;576.78;105.38;;;;;;;;;;4938354;28;20038;-69
2022/12/10 07:01:17;;;;;;;804.88;122.07;;;;;;;;;;4938681;28;20074;-69
2022/12/10 07:03:43;;;;;;;530.78;102.30;;;;;;;;;;4935639;28;22143;-69
2022/12/10 07:06:12;;;;;;;466.17;103.03;;;;;;;;;;4958027;28;20045;-69
2022/12/10 07:08:38;;;;;;;379.73;91.90;;;;;;;;;;4938777;28;20057;-69
2022/12/10 07:11:04;;;;;;;355.30;87.93;;;;;;;;;;4959398;28;20038;-69
2022/12/10 07:13:30;;;;;;;367.02;97.78;;;;;;;;;;4959191;28;20125;-69
2022/12/10 07:15:55;;;;;;;250.77;80.28;;;;;;;;;;4928395;28;20047;-70
2022/12/10 07:18:20;;;;;;;164.50;52.70;;;;;;;;;;4957887;28;20478;-69
2022/12/10 07:20:46;;;;;;;227.37;58.23;;;;;;;;;;4922840;28;20184;-70
2022/12/10 07:23:13;;;;;;;232.40;53.90;;;;;;;;;;4955809;28;20061;-69
2022/12/10 07:25:39;;;;;;;227.88;61.90;;;;;;;;;;4958223;28;20038;-69
2022/12/10 07:28:07;;;;;;;270.88;56.22;;;;;;;;;;4940733;28;20061;-71
2022/12/10 07:30:33;;;;;;;238.18;63.35;;;;;;;;;;4959565;28;20070;-69
2022/12/10 07:33:00;;;;;;;189.85;57.47;;;;;;;;;;4943933;28;20031;-69
2022/12/10 07:35:26;;;;;;;180.07;65.45;;;;;;;;;;4959820;28;20042;-69
2022/12/10 07:37:51;;;;;;;195.05;59.35;;;;;;;;;;4940962;28;20035;-70
2022/12/10 07:40:16;;;;;;;191.02;56.53;;;;;;;;;;4943030;28;20102;-70
2022/12/10 07:42:42;;;;;;;187.55;56.95;;;;;;;;;;4944516;28;20296;-70
2022/12/10 07:45:08;;;;;;;188.27;55.97;;;;;;;;;;4962257;28;20042;-69
2022/12/10 07:47:37;;;;;;;190.02;58.03;;;;;;;;;;4961705;28;20136;-69
2022/12/10 07:50:05;;;;;;;190.75;59.05;;;;;;;;;;4959252;28;20046;-69
2022/12/10 07:52:32;;;;;;;198.88;64.72;;;;;;;;;;4940900;28;20109;-69
2022/12/10 07:54:58;;;;;;;205.48;61.30;;;;;;;;;;4962140;28;20039;-71
2022/12/10 07:57:27;;;;;;;211.38;64.72;;;;;;;;;;4962150;28;20039;-70
2022/12/10 07:59:53;;;;;;;233.98;58.97;;;;;;;;;;4961191;28;20147;-69
2022/12/10 08:02:18;;;;;;;184.73;56.05;;;;;;;;;;4960797;28;20095;-71
2022/12/10 08:04:43;;;;;;;172.52;58.38;;;;;;;;;;4938643;28;20039;-70
2022/12/10 08:07:11;;;;;;;193.77;57.45;;;;;;;;;;4926987;28;20605;-70
2022/12/10 08:09:36;;;;;;;153.98;50.53;;;;;;;;;;4959110;28;20214;-69
2022/12/10 08:12:04;;;;;;;165.45;54.13;;;;;;;;;;5005998;28;20100;-69
2022/12/10 08:14:29;;;;;;;193.57;72.00;;;;;;;;;;4957144;28;20435;-70
2022/12/10 08:16:54;;;;;;;220.38;82.88;;;;;;;;;;4936253;28;20165;-70
2022/12/10 08:19:22;;;;;;;229.10;72.32;;;;;;;;;;4959301;28;20065;-70
2022/12/10 08:21:47;;;;;;;218.32;73.05;;;;;;;;;;4956045;28;20050;-71
2022/12/10 08:24:12;;;;;;;219.80;74.40;;;;;;;;;;4958287;28;20042;-69
2022/12/10 08:26:39;;;;;;;244.57;77.22;;;;;;;;;;4961812;28;20042;-71
2022/12/10 08:29:05;;;;;;;217.65;73.40;;;;;;;;;;4943792;28;20042;-70
2022/12/10 08:31:36;;;;;;;235.77;59.30;;;;;;;;;;4939704;28;20041;-69
2022/12/10 08:34:01;;;;;;;267.50;57.80;;;;;;;;;;4936627;28;20361;-70
2022/12/10 08:36:26;;;;;;;317.05;63.17;;;;;;;;;;4928493;28;20045;-70
2022/12/10 08:38:51;;;;;;;289.73;63.80;;;;;;;;;;4955480;28;20051;-69
2022/12/10 08:41:18;;;;;;;310.98;80.47;;;;;;;;;;4958722;28;20046;-70
2022/12/10 08:43:46;;;;;;;477.95;106.18;;;;;;;;;;4942965;28;20203;-69
2022/12/10 08:46:15;;;;;;;281.77;77.40;;;;;;;;;;4942119;28;20160;-69
2022/12/10 08:48:41;;;;;;;386.63;97.88;;;;;;;;;;4962679;28;20788;-70
2022/12/10 08:51:07;;;;;;;307.42;79.28;;;;;;;;;;4959289;28;20053;-70
2022/12/10 08:53:33;;;;;;;302.67;61.97;;;;;;;;;;4958106;28;20471;-70
2022/12/10 08:55:59;;;;;;;330.83;66.00;;;;;;;;;;4957565;28;20038;-75
2022/12/10 08:58:24;;;;;;;219.55;59.83;;;;;;;;;;4937714;28;20427;-71
2022/12/10 09:00:50;;;;;;;201.48;51.22;;;;;;;;;;4959267;28;20049;-72
2022/12/10 09:03:18;;;;;;;270.60;54.78;;;;;;;;;;4959642;28;20077;-71
2022/12/10 09:05:43;;;;;;;196.23;47.87;;;;;;;;;;4939434;28;20035;-71
2022/12/10 09:08:11;;;;;;;203.80;47.13;;;;;;;;;;4957625;28;20131;-71
2022/12/10 09:10:39;;;;;;;284.38;62.75;;;;;;;;;;4942863;28;20172;-70
2022/12/10 09:13:07;;;;;;;336.98;81.13;;;;;;;;;;4939098;28;20446;-70
2022/12/10 09:15:34;;;;;;;285.80;90.50;;;;;;;;;;4921884;28;20476;-71
2022/12/10 09:18:00;;;;;;;396.00;89.25;;;;;;;;;;4938920;28;20049;-71
2022/12/10 09:20:25;;;;;;;278.48;78.72;;;;;;;;;;4940850;28;20434;-71
2022/12/10 09:22:51;;;;;;;205.18;70.57;;;;;;;;;;4906724;28;20085;-72
2022/12/10 09:25:16;;;;;;;195.75;66.95;;;;;;;;;;4921590;28;20297;-70
2022/12/10 09:27:42;;;;;;;306.08;60.85;;;;;;;;;;4937204;28;20696;-71
2022/12/10 09:30:07;;;;;;;314.08;68.97;;;;;;;;;;4921850;28;20045;-71
2022/12/10 09:32:33;;;;;;;357.65;61.97;;;;;;;;;;4936800;28;20035;-71
2022/12/10 09:34:58;;;;;;;378.52;59.97;;;;;;;;;;4941642;28;20613;-70
2022/12/10 09:37:24;;;;;;;340.35;65.07;;;;;;;;;;4921070;28;20042;-70
2022/12/10 09:39:49;;;;;;;264.23;70.53;;;;;;;;;;4940407;28;20832;-71
2022/12/10 09:42:33;;;;;;;437.60;87.95;;;;;;;;;;4939199;28;20043;-71
2022/12/10 09:45:10;;;;;;;286.00;51.83;;;;;;;;;;4941036;28;20103;-71
2022/12/10 09:47:56;;;;;;;401.40;50.50;;;;;;;;;;4940502;28;20057;-70
2022/12/10 09:50:33;;;;;;;325.75;52.83;;;;;;;;;;4938980;28;20042;-70
2022/12/10 09:52:59;;;;;;;303.42;76.55;;;;;;;;;;4939124;28;21349;-71
2022/12/10 09:55:31;;;;;;;368.88;73.05;;;;;;;;;;4939424;28;21974;-72
2022/12/10 09:57:56;;;;;;;339.55;59.53;;;;;;;;;;4924828;28;20046;-71
2022/12/10 10:00:25;;;;;;;276.65;53.03;;;;;;;;;;4923300;28;21115;-72
2022/12/10 10:02:51;;;;;;;193.60;52.28;;;;;;;;;;4943138;28;20145;-72
2022/12/10 10:05:23;;;;;;;342.30;67.78;;;;;;;;;;4943194;28;20821;-70
2022/12/10 10:07:50;;;;;;;245.48;49.22;;;;;;;;;;4943725;28;20121;-72
2022/12/10 10:10:19;;;;;;;256.27;57.42;;;;;;;;;;4939848;28;20274;-72
2022/12/10 10:12:44;;;;;;;295.77;72.07;;;;;;;;;;4941000;28;20046;-71
2022/12/10 10:15:12;;;;;;;298.02;51.05;;;;;;;;;;4939999;28;20111;-71
2022/12/10 10:17:38;;;;;;;269.92;57.33;;;;;;;;;;4923405;28;20276;-69
2022/12/10 10:20:05;;;;;;;255.75;56.95;;;;;;;;;;4939844;28;20046;-71
2022/12/10 10:22:31;;;;;;;329.60;68.00;;;;;;;;;;4938352;28;20046;-72
2022/12/10 10:24:56;;;;;;;300.90;52.53;;;;;;;;;;4934656;28;20898;-72
2022/12/10 10:27:27;;;;;;;267.42;49.28;;;;;;;;;;4922363;28;20367;-71
2022/12/10 10:29:54;;;;;;;196.18;43.33;;;;;;;;;;4940669;28;20038;-72
2022/12/10 10:32:39;;;;;;;253.45;50.53;;;;;;;;;;4938436;28;20042;-71
2022/12/10 10:35:18;;;;;;;272.55;60.38;;;;;;;;;;4940328;28;20300;-73
2022/12/10 10:37:44;;;;;;;221.82;50.00;;;;;;;;;;4939577;28;20073;-73
2022/12/10 10:40:35;;;;;;;236.98;56.50;;;;;;;;;;4939490;28;20046;-72
2022/12/10 10:43:04;;;;;;;216.60;49.45;;;;;;;;;;4939519;28;20108;-72
2022/12/10 10:45:35;;;;;;;282.73;65.18;;;;;;;;;;4941677;28;20066;-73
2022/12/10 10:48:08;;;;;;;283.52;60.30;;;;;;;;;;4919332;28;20540;-67
2022/12/10 10:50:38;;;;;;;309.40;58.53;;;;;;;;;;4939810;28;20183;-68
2022/12/10 10:53:19;;;;;;;285.02;63.40;;;;;;;;;;4937047;28;20061;-69
2022/12/10 10:55:47;;;;;;;284.48;61.28;;;;;;;;;;4937062;28;20188;-69
2022/12/10 10:58:19;;;;;;;226.02;48.95;;;;;;;;;;4937258;28;20046;-69
2022/12/10 11:01:14;;;;;;;276.80;59.70;;;;;;;;;;4922070;28;20076;-69
2022/12/10 11:03:50;;;;;;;226.43;67.32;;;;;;;;;;4932311;28;20543;-69
2022/12/10 11:06:16;;;;;;;233.50;57.33;;;;;;;;;;4936400;28;20039;-69
2022/12/10 11:08:45;;;;;;;272.88;65.35;;;;;;;;;;4934626;28;20139;-68
2022/12/10 11:11:18;;;;;;;317.67;85.72;;;;;;;;;;4917053;28;20729;-68
2022/12/10 11:13:44;;;;;;;303.65;78.38;;;;;;;;;;4916436;28;20058;-68
2022/12/10 11:16:11;;;;;;;327.17;88.90;;;;;;;;;;4939129;28;20080;-68
2022/12/10 11:18:38;;;;;;;308.13;65.47;;;;;;;;;;4924257;28;20159;-68
2022/12/10 11:21:16;;;;;;;322.23;96.82;;;;;;;;;;4941482;28;20054;-69
2022/12/10 11:23:49;;;;;;;303.02;93.15;;;;;;;;;;4917818;28;20854;-68
2022/12/10 11:26:20;;;;;;;263.83;75.90;;;;;;;;;;4935426;28;20861;-67
2022/12/10 11:29:02;;;;;;;235.00;78.10;;;;;;;;;;4937732;28;20039;-68
2022/12/10 11:31:39;;;;;;;199.32;49.15;;;;;;;;;;4939107;28;20962;-67
2022/12/10 11:34:11;;;;;;;218.32;56.33;;;;;;;;;;4940237;28;20049;-68
2022/12/10 11:36:41;;;;;;;189.82;55.47;;;;;;;;;;4938148;28;20643;-67
2022/12/10 11:39:25;;;;;;;220.50;47.40;;;;;;;;;;4919434;28;20129;-67
2022/12/10 11:41:58;;;;;;;218.82;58.00;;;;;;;;;;4920168;28;20257;-68
2022/12/10 11:44:34;;;;;;;249.15;76.93;;;;;;;;;;4939957;28;20030;-69
2022/12/10 11:47:00;;;;;;;274.15;79.00;;;;;;;;;;4941703;28;20050;-68
2022/12/10 11:49:28;;;;;;;296.17;87.55;;;;;;;;;;4941531;28;20034;-67
2022/12/10 11:52:00;;;;;;;243.13;73.03;;;;;;;;;;4942286;28;20042;-68
2022/12/10 11:54:26;;;;;;;;;;;;;;;;;;4937447;28;20034;-69
2022/12/10 11:57:06;;;;;;;218.98;54.85;;;;;;;;;;4937417;28;19928;-69
2022/12/10 11:59:36;;;;;;;198.75;49.78;;;;;;;;;;4998082;28;20061;-68
2022/12/10 12:02:20;;;;;;;222.98;50.75;;;;;;;;;;4918042;28;20046;-68
2022/12/10 12:05:05;;;;;;;218.80;54.75;;;;;;;;;;4934798;28;20758;-69
2022/12/10 12:07:35;;;;;;;177.55;47.65;;;;;;;;;;4933447;28;20043;-68
2022/12/10 12:10:19;;;;;;;247.05;55.53;;;;;;;;;;4936461;28;20091;-69
2022/12/10 12:12:45;;;;;;;221.63;49.63;;;;;;;;;;4917315;28;20832;-67
2022/12/10 12:15:13;;;;;;;167.82;48.42;;;;;;;;;;4935593;28;20317;-69
2022/12/10 12:17:41;;;;;;;236.32;59.28;;;;;;;;;;4921042;28;20049;-68
2022/12/10 12:20:13;;;;;;;218.98;54.28;;;;;;;;;;4941669;28;20049;-69
2022/12/10 12:22:41;;;;;;;212.65;52.20;;;;;;;;;;4940428;28;20069;-69
2022/12/10 12:25:20;;;;;;;241.77;50.38;;;;;;;;;;4924201;28;20049;-67
2022/12/10 12:27:49;;;;;;;205.20;49.67;;;;;;;;;;4943575;28;20079;-68
2022/12/10 12:30:19;;;;;;;240.07;55.72;;;;;;;;;;4944119;28;20038;-68
2022/12/10 12:32:44;;;;;;;213.38;60.72;;;;;;;;;;4942274;28;20092;-68
2022/12/10 12:35:13;;;;;;;203.07;55.27;;;;;;;;;;4941877;28;20145;-69
2022/12/10 12:37:44;;;;;;;233.70;59.92;;;;;;;;;;4943333;28;20038;-68
2022/12/10 12:40:21;;;;;;;226.90;60.00;;;;;;;;;;4943377;28;20063;-66
2022/12/10 12:42:56;;;;;;;193.90;49.38;;;;;;;;;;4943654;28;20046;-67
2022/12/10 12:45:40;;;;;;;204.07;47.72;;;;;;;;;;4928405;28;20039;-68
2022/12/10 12:48:11;;;;;;;219.88;60.88;;;;;;;;;;4943275;28;20039;-68
2022/12/10 12:50:45;;;;;;;221.40;66.45;;;;;;;;;;4943672;28;20039;-68
2022/12/10 12:53:20;;;;;;;238.43;69.95;;;;;;;;;;4942409;28;20058;-68
2022/12/10 12:56:01;;;;;;;221.02;73.30;;;;;;;;;;4940739;28;20095;-68
2022/12/10 12:58:35;;;;;;;189.70;51.78;;;;;;;;;;4942697;28;20049;-68
2022/12/10 13:01:08;;;;;;;182.75;46.90;;;;;;;;;;4944449;28;20030;-68
2022/12/10 13:03:39;;;;;;;174.30;50.45;;;;;;;;;;4944553;28;20044;-69
2022/12/10 13:06:13;;;;;;;208.52;59.45;;;;;;;;;;4944182;28;20031;-68
2022/12/10 13:09:05;;;;;;;217.50;56.00;;;;;;;;;;4943448;28;20037;-68
2022/12/10 13:11:32;;;;;;;179.90;56.00;;;;;;;;;;4943986;28;20050;-67
2022/12/10 13:14:10;;;;;;;140.85;47.58;;;;;;;;;;4942622;28;20043;-69
2022/12/10 13:16:38;;;;;;;178.98;57.50;;;;;;;;;;5008539;28;20035;-68
2022/12/10 13:19:24;;;;;;;164.43;50.72;;;;;;;;;;4941541;28;20046;-67
2022/12/10 13:22:10;;;;;;;130.88;41.33;;;;;;;;;;4924952;28;20062;-68
2022/12/10 13:24:35;;;;;;;165.02;43.67;;;;;;;;;;4921919;28;20530;-71
2022/12/10 13:27:09;;;;;;;166.35;51.92;;;;;;;;;;4941187;28;20048;-68
2022/12/10 13:29:53;;;;;;;155.75;49.38;;;;;;;;;;4937660;28;20046;-68
2022/12/10 13:32:20;;;;;;;171.70;46.78;;;;;;;;;;4928749;28;20712;-67
2022/12/10 13:34:45;;;;;;;175.30;48.53;;;;;;;;;;4940068;28;20034;-67
2022/12/10 13:37:15;;;;;;;160.48;42.63;;;;;;;;;;4939133;28;20057;-67
2022/12/10 13:39:59;;;;;;;176.48;47.63;;;;;;;;;;4918721;28;20762;-67
2022/12/10 13:45:22;;;;;;;148.13;42.33;;;;;;;;;;4937159;28;20131;-68
2022/12/10 13:47:49;;;;;;;149.27;43.05;;;;;;;;;;4939268;28;20042;-68
2022/12/10 13:50:18;;;;;;;161.43;44.72;;;;;;;;;;4922084;28;20455;-68
2022/12/10 13:52:49;;;;;;;156.73;48.25;;;;;;;;;;4936736;28;20046;-67
2022/12/10 13:55:32;;;;;;;170.73;47.40;;;;;;;;;;4926140;28;20423;-68
2022/12/10 13:58:00;;;;;;;165.50;50.00;;;;;;;;;;4936501;28;20200;-67
2022/12/10 14:00:37;;;;;;;173.55;48.05;;;;;;;;;;4933732;28;20605;-68
2022/12/10 14:03:22;;;;;;;180.98;48.33;;;;;;;;;;4937681;28;20057;-67
2022/12/10 14:06:02;;;;;;;170.95;49.33;;;;;;;;;;4937199;28;20035;-68
2022/12/10 14:08:29;;;;;;;190.85;52.17;;;;;;;;;;4916108;28;20128;-68
2022/12/10 14:10:56;;;;;;;181.25;52.97;;;;;;;;;;4919489;28;20192;-67
2022/12/10 14:13:27;;;;;;;206.00;56.90;;;;;;;;;;4920715;28;20695;-67
2022/12/10 14:15:56;;;;;;;205.90;56.53;;;;;;;;;;4920450;28;20126;-67
2022/12/10 14:18:22;;;;;;;177.25;51.83;;;;;;;;;;4919398;28;20430;-68
2022/12/10 14:20:50;;;;;;;175.95;51.58;;;;;;;;;;4919792;28;20772;-68
2022/12/10 14:23:33;;;;;;;168.43;49.58;;;;;;;;;;4915969;28;20039;-67
2022/12/10 14:26:05;;;;;;;181.23;51.67;;;;;;;;;;4917183;28;20256;-68